Airfield :
LOGIN :

Register | Disclaimer

   EN    FR    IT 

 










Legend :    VFR   Marginal VFR   IFR   Intensive IFR   Very Intensive IFR
Visi :
Ceiling :
>= 8 km
>= 3000ft
5 to 8 km
1000 to 3000 ft
1500m to 5 km
500 to 1000 ft
800 to 1500m
200 to 500 ft
< 800m
< 200 ft
Symbols :   Thunderstorms  Fog  Heavy snow  Heavy precipitations  Wind > 20 kt
SIGMETs :     Misc.  Thunderstorms  Icing  Turbulence  Mountain Waves  Volcanic Ashes







- Airport Elevation : 1115 ft
- IATA code : GRZ


LOWG - Graz

CURRENT METAR :
  • 201020Z VRB03KT CAVOK 22/08 Q1026 NOSIG

EXPIRED METARs :
  • 200950Z VRB04KT CAVOK 21/10 Q1026 NOSIG
  • 200920Z 16004KT 120V220 CAVOK 21/09 Q1027 NOSIG
  • 200850Z 18004KT 140V220 CAVOK 20/10 Q1027 NOSIG
  • 200820Z VRB03KT CAVOK 19/10 Q1027 NOSIG
  • 200750Z VRB02KT CAVOK 18/11 Q1027 NOSIG

TAF TAF LOWG
Valid from the 20 at 06:00 until the 21 at 06:00 UTC


200515Z 2006/2106 13005KT CAVOK TX25/2014Z TN07/2104Z
No reported NOTAMs for that airfield.



MET'MAP, your aeronautical weather chart ! - Copyright ORBIFLY December 2007 - Disclaimer

ORBIFLY MET'MAP TEAM :

Programming & Development : Alexandra Zaïnal
Concept & Development : Baudouin d'Aumeries
Co-Development & Prog : Marc-Olivier Méhu
Technical & hardware support : Manuel Goepfert

Contact : metmap@orbifly.com




SOURCES & CREDITS :

   NOAA